Time;durP1;ratioP1;P1;durP2;ratioP2;P2;SDS_P1;SDS_P2;PMS_P1;PMS_P2;Temp;Humidity;BMP_temperature;BMP_pressure;BME280_temperature;BME280_humidity;BME280_pressure;Samples;Min_cycle;Max_cycle;Signal;HPM_P1;HPM_P2
2023/09/08 00:00:25;;;;;;;0.50;0.40;;;18.90;99.90;;;;;;5053647;28;20601;-81
2023/09/08 00:02:52;;;;;;;0.50;0.40;;;18.90;99.90;;;;;;5053597;28;20522;-80
2023/09/08 00:05:19;;;;;;;0.50;0.50;;;19.00;99.90;;;;;;5053163;28;20441;-80
2023/09/08 00:07:46;;;;;;;0.50;0.40;;;19.00;99.90;;;;;;5053401;28;20458;-81
2023/09/08 00:10:12;;;;;;;0.50;0.30;;;19.00;99.90;;;;;;5053927;28;20530;-80
2023/09/08 00:12:41;;;;;;;0.50;0.40;;;19.10;99.90;;;;;;5053540;28;20458;-80
2023/09/08 00:15:08;;;;;;;0.50;0.30;;;19.10;99.90;;;;;;5053978;28;20482;-80
2023/09/08 00:17:36;;;;;;;0.50;0.30;;;19.00;99.90;;;;;;5053076;28;20469;-80
2023/09/08 00:20:06;;;;;;;0.50;0.30;;;19.00;99.90;;;;;;5052718;28;20534;-80
2023/09/08 00:22:32;;;;;;;0.50;0.30;;;19.00;99.90;;;;;;5053003;28;20454;-80
2023/09/08 00:24:59;;;;;;;0.50;0.30;;;19.00;99.90;;;;;;5052976;28;20432;-80
2023/09/08 00:27:26;;;;;;;0.50;0.30;;;18.90;99.90;;;;;;5052872;28;20467;-80
2023/09/08 00:29:54;;;;;;;0.50;0.33;;;18.80;99.90;;;;;;5053117;28;20444;-80
2023/09/08 00:32:21;;;;;;;0.50;0.40;;;18.80;99.90;;;;;;5052672;28;20443;-80
2023/09/08 00:34:48;;;;;;;0.50;0.40;;;18.70;99.90;;;;;;5036430;28;20478;-81
2023/09/08 00:37:14;;;;;;;0.50;0.30;;;18.70;99.90;;;;;;5052628;28;20470;-79
2023/09/08 00:39:41;;;;;;;0.50;0.30;;;18.60;99.90;;;;;;5052573;28;20449;-81
2023/09/08 00:42:08;;;;;;;0.50;0.40;;;18.60;99.90;;;;;;5052633;28;20451;-81
2023/09/08 00:44:35;;;;;;;0.50;0.30;;;18.60;99.90;;;;;;5052111;28;20440;-78
2023/09/08 00:47:03;;;;;;;0.50;0.40;;;18.50;99.90;;;;;;5052405;28;20470;-81
2023/09/08 00:49:30;;;;;;;0.50;0.30;;;18.50;99.90;;;;;;5052124;28;20449;-81
2023/09/08 00:51:57;;;;;;;0.50;0.33;;;18.50;99.90;;;;;;5053001;28;20443;-81
2023/09/08 00:54:24;;;;;;;0.50;0.40;;;18.40;99.90;;;;;;5052056;28;20475;-79
2023/09/08 00:56:56;;;;;;;0.50;0.30;;;18.40;99.90;;;;;;5052199;28;20477;-81
2023/09/08 00:59:22;;;;;;;0.50;0.30;;;18.40;99.90;;;;;;5052670;28;20446;-80
2023/09/08 01:01:49;;;;;;;0.60;0.40;;;18.40;99.90;;;;;;5036010;28;20443;-81
2023/09/08 01:04:17;;;;;;;0.50;0.30;;;18.40;99.90;;;;;;5052177;28;20455;-80
2023/09/08 01:06:46;;;;;;;0.50;0.30;;;18.30;99.90;;;;;;5052071;28;20463;-80
2023/09/08 01:09:13;;;;;;;0.50;0.40;;;18.30;99.90;;;;;;5052169;28;20808;-80
2023/09/08 01:11:40;;;;;;;0.50;0.30;;;18.20;99.90;;;;;;5051808;28;20445;-79
2023/09/08 01:14:09;;;;;;;0.50;0.30;;;18.20;99.90;;;;;;5051622;28;20432;-80
2023/09/08 01:16:37;;;;;;;0.50;0.30;;;18.20;99.90;;;;;;5051822;28;20598;-79
2023/09/08 01:19:05;;;;;;;0.50;0.40;;;18.10;99.90;;;;;;5052194;28;20439;-81
2023/09/08 01:21:53;;;;;;;0.50;0.30;;;18.00;99.90;;;;;;5051872;28;20477;-81
2023/09/08 01:24:57;;;;;;;0.50;0.30;;;18.00;99.90;;;;;;5051661;28;20454;-81
2023/09/08 01:27:26;;;;;;;0.50;0.30;;;18.00;99.90;;;;;;5044722;28;20470;-80
2023/09/08 01:29:54;;;;;;;0.50;0.30;;;17.90;99.90;;;;;;5035923;28;20474;-80
2023/09/08 01:32:22;;;;;;;0.50;0.40;;;17.90;99.90;;;;;;5051090;28;20438;-80
2023/09/08 01:34:49;;;;;;;0.50;0.30;;;17.90;99.90;;;;;;5051121;28;20485;-80
2023/09/08 01:37:16;;;;;;;0.50;0.40;;;17.80;99.90;;;;;;5051636;28;21036;-79
2023/09/08 01:39:43;;;;;;;0.50;0.30;;;17.80;99.90;;;;;;5051578;28;20822;-80
2023/09/08 01:42:11;;;;;;;0.50;0.40;;;17.70;99.90;;;;;;5051637;28;20443;-80
2023/09/08 01:44:38;;;;;;;0.50;0.30;;;17.70;99.90;;;;;;5051283;28;20795;-80
2023/09/08 01:47:05;;;;;;;0.50;0.30;;;17.60;99.90;;;;;;5051502;28;20995;-80
2023/09/08 01:49:31;;;;;;;0.50;0.40;;;17.60;99.90;;;;;;5051579;28;20963;-79
2023/09/08 01:51:58;;;;;;;0.50;0.30;;;17.60;99.90;;;;;;5051673;28;20815;-81
2023/09/08 01:54:25;;;;;;;0.50;0.30;;;17.60;99.90;;;;;;5051259;28;20450;-80
2023/09/08 01:56:52;;;;;;;0.50;0.30;;;17.60;99.90;;;;;;5050735;28;20466;-81
2023/09/08 01:59:20;;;;;;;0.50;0.40;;;17.50;99.90;;;;;;5051456;28;20446;-81
2023/09/08 02:01:47;;;;;;;0.50;0.40;;;17.50;99.90;;;;;;5051448;28;20438;-81
2023/09/08 02:04:13;;;;;;;0.50;0.40;;;17.50;99.90;;;;;;5051193;28;20450;-80
2023/09/08 02:06:40;;;;;;;0.50;0.30;;;17.50;99.90;;;;;;5051514;28;20473;-81
2023/09/08 02:09:08;;;;;;;0.50;0.30;;;17.50;99.90;;;;;;5051728;28;20820;-80
2023/09/08 02:11:35;;;;;;;0.50;0.40;;;17.40;99.90;;;;;;5051357;28;20450;-81
2023/09/08 02:14:02;;;;;;;0.50;0.30;;;17.40;99.90;;;;;;5051055;28;20446;-80
2023/09/08 02:16:30;;;;;;;0.50;0.30;;;17.40;99.90;;;;;;5051114;28;20483;-80
2023/09/08 02:18:57;;;;;;;0.50;0.30;;;17.30;99.90;;;;;;5051182;28;20445;-80
2023/09/08 02:21:23;;;;;;;0.50;0.33;;;17.30;99.90;;;;;;5051276;28;20474;-81
2023/09/08 02:23:49;;;;;;;0.50;0.30;;;17.30;99.90;;;;;;5050821;28;20442;-80
2023/09/08 02:26:16;;;;;;;0.50;0.30;;;17.20;99.90;;;;;;5050746;28;20464;-81
2023/09/08 02:28:43;;;;;;;0.50;0.30;;;17.20;99.90;;;;;;5050849;28;20695;-80
2023/09/08 02:31:10;;;;;;;0.50;0.40;;;17.20;99.90;;;;;;5051198;28;20443;-80
2023/09/08 02:33:38;;;;;;;0.50;0.30;;;17.20;99.90;;;;;;5050787;28;20447;-80
2023/09/08 02:36:06;;;;;;;0.50;0.30;;;17.10;99.90;;;;;;5050874;28;20484;-79
2023/09/08 02:38:33;;;;;;;0.50;0.40;;;17.10;99.90;;;;;;5050910;28;20888;-79
2023/09/08 02:40:59;;;;;;;0.50;0.40;;;17.10;99.90;;;;;;5050976;28;20794;-80
2023/09/08 02:43:27;;;;;;;0.50;0.37;;;17.10;99.90;;;;;;5052976;28;20841;-80
2023/09/08 02:45:53;;;;;;;0.50;0.30;;;17.10;99.90;;;;;;5054392;28;20470;-80
2023/09/08 02:48:20;;;;;;;0.50;0.40;;;17.10;99.90;;;;;;5055063;28;20453;-80
2023/09/08 02:50:48;;;;;;;0.50;0.30;;;17.10;99.90;;;;;;5054588;28;20440;-81
2023/09/08 02:53:14;;;;;;;0.50;0.40;;;17.00;99.90;;;;;;5054458;28;20452;-81
2023/09/08 02:55:41;;;;;;;0.50;0.30;;;16.90;99.90;;;;;;5054219;28;20973;-81
2023/09/08 02:58:08;;;;;;;0.50;0.30;;;16.90;99.90;;;;;;5054528;28;20205;-80
2023/09/08 03:00:34;;;;;;;0.50;0.40;;;16.90;99.90;;;;;;5054390;28;20451;-80
2023/09/08 03:03:01;;;;;;;0.50;0.30;;;16.90;99.90;;;;;;5054493;28;20431;-80
2023/09/08 03:05:28;;;;;;;0.50;0.40;;;16.80;99.90;;;;;;5054528;28;20441;-81
2023/09/08 03:07:56;;;;;;;0.50;0.30;;;16.80;99.90;;;;;;5054279;28;20470;-81
2023/09/08 03:10:23;;;;;;;0.50;0.40;;;16.80;99.90;;;;;;5054263;28;20474;-80
2023/09/08 03:12:49;;;;;;;0.60;0.60;;;16.80;99.90;;;;;;5053997;28;20442;-80
2023/09/08 03:15:16;;;;;;;0.50;0.30;;;16.70;99.90;;;;;;5054106;28;20481;-80
2023/09/08 03:17:43;;;;;;;0.50;0.30;;;16.70;99.90;;;;;;5053867;28;20462;-80
2023/09/08 03:20:13;;;;;;;0.50;0.40;;;16.70;99.90;;;;;;5054194;28;20449;-80
2023/09/08 03:22:39;;;;;;;1.73;1.57;;;16.70;99.90;;;;;;5054198;28;20454;-80
2023/09/08 03:25:09;;;;;;;0.50;0.30;;;16.70;99.90;;;;;;5053870;28;20916;-80
2023/09/08 03:27:35;;;;;;;0.50;0.40;;;16.70;99.90;;;;;;5053787;28;20471;-77
2023/09/08 03:30:02;;;;;;;0.50;0.37;;;16.70;99.90;;;;;;5037974;28;20442;-80
2023/09/08 03:32:29;;;;;;;0.50;0.30;;;16.70;99.90;;;;;;5054119;28;20478;-80
2023/09/08 03:34:56;;;;;;;0.50;0.30;;;16.60;99.90;;;;;;5053462;28;20449;-79
2023/09/08 03:37:23;;;;;;;0.50;0.40;;;16.70;99.90;;;;;;5053669;28;20474;-80
2023/09/08 03:39:50;;;;;;;0.50;0.30;;;16.60;99.90;;;;;;5053572;28;21038;-81
2023/09/08 03:42:18;;;;;;;1.47;1.47;;;16.60;99.90;;;;;;5053602;28;20439;-80
2023/09/08 03:44:45;;;;;;;0.50;0.30;;;16.60;99.90;;;;;;5053162;28;20447;-80
2023/09/08 03:47:12;;;;;;;0.50;0.30;;;16.60;99.90;;;;;;5054847;28;20547;-81
2023/09/08 03:49:39;;;;;;;0.50;0.40;;;16.60;99.90;;;;;;5054832;28;20442;-82
2023/09/08 03:52:06;;;;;;;0.50;0.30;;;16.60;99.90;;;;;;5055003;28;20466;-81
2023/09/08 03:54:33;;;;;;;0.50;0.30;;;16.60;99.90;;;;;;5052256;28;20436;-80
2023/09/08 03:57:00;;;;;;;0.50;0.37;;;16.60;99.90;;;;;;5053227;28;20477;-80
2023/09/08 03:59:28;;;;;;;0.50;0.40;;;16.50;99.90;;;;;;5053649;28;20792;-81
2023/09/08 04:01:55;;;;;;;0.50;0.30;;;16.50;99.90;;;;;;5053651;28;20443;-81
2023/09/08 04:04:22;;;;;;;0.50;0.30;;;16.60;99.90;;;;;;5053466;28;20445;-80
2023/09/08 04:06:48;;;;;;;0.50;0.40;;;16.60;99.90;;;;;;5053046;28;20558;-81
2023/09/08 04:09:15;;;;;;;0.50;0.40;;;16.60;99.90;;;;;;5053008;28;20453;-81
2023/09/08 04:11:42;;;;;;;0.50;0.30;;;16.60;99.90;;;;;;5053631;28;20440;-79
2023/09/08 04:14:09;;;;;;;0.50;0.30;;;16.60;99.90;;;;;;5052996;28;20457;-79
2023/09/08 04:16:37;;;;;;;0.50;0.40;;;16.50;99.90;;;;;;5052983;28;20990;-77
2023/09/08 04:19:04;;;;;;;0.50;0.40;;;16.50;99.90;;;;;;5053069;28;20439;-80
2023/09/08 04:21:31;;;;;;;0.50;0.40;;;16.40;99.90;;;;;;5053071;28;20959;-80
2023/09/08 04:23:57;;;;;;;0.50;0.30;;;16.40;99.90;;;;;;5052331;28;20454;-80
2023/09/08 04:26:24;;;;;;;0.50;0.30;;;16.30;99.90;;;;;;5052948;28;20456;-81
2023/09/08 04:28:51;;;;;;;1.80;1.70;;;16.30;99.90;;;;;;5052832;28;20504;-80
2023/09/08 04:31:19;;;;;;;0.50;0.30;;;16.30;99.90;;;;;;5053441;28;20929;-81
2023/09/08 04:33:47;;;;;;;0.50;0.40;;;16.20;99.90;;;;;;5052353;28;20446;-79
2023/09/08 04:36:15;;;;;;;0.53;0.53;;;16.20;99.90;;;;;;5052754;28;20490;-80
2023/09/08 04:38:41;;;;;;;0.50;0.40;;;16.20;99.90;;;;;;5052528;28;20459;-80
2023/09/08 04:41:08;;;;;;;0.50;0.30;;;16.20;99.90;;;;;;5036478;28;20436;-80
2023/09/08 04:43:35;;;;;;;0.50;0.40;;;16.10;99.90;;;;;;5052994;28;20444;-80
2023/09/08 04:46:02;;;;;;;0.50;0.40;;;16.10;99.90;;;;;;5052451;28;20451;-81
2023/09/08 04:48:29;;;;;;;6.83;2.67;;;16.10;99.90;;;;;;5052884;28;20931;-80
2023/09/08 04:50:57;;;;;;;0.50;0.37;;;16.10;99.90;;;;;;5052916;28;20823;-81
2023/09/08 04:53:24;;;;;;;0.50;0.40;;;16.10;99.90;;;;;;5053123;28;20449;-81
2023/09/08 04:55:51;;;;;;;0.50;0.30;;;16.10;99.90;;;;;;5052575;28;20486;-80
2023/09/08 04:58:17;;;;;;;0.50;0.40;;;16.00;99.90;;;;;;5053639;28;20440;-81
2023/09/08 05:00:44;;;;;;;0.50;0.40;;;16.00;99.90;;;;;;5053386;28;20448;-80
2023/09/08 05:03:11;;;;;;;0.50;0.30;;;16.00;99.90;;;;;;5052394;28;20468;-80
2023/09/08 05:05:38;;;;;;;0.50;0.40;;;16.00;99.90;;;;;;5052381;28;20450;-79
2023/09/08 05:08:06;;;;;;;0.50;0.40;;;16.00;99.90;;;;;;5052814;28;20486;-81
2023/09/08 05:10:33;;;;;;;0.50;0.30;;;16.00;99.90;;;;;;5052813;28;20446;-84
2023/09/08 05:13:00;;;;;;;0.50;0.40;;;16.00;99.90;;;;;;5043956;28;20443;-82
2023/09/08 05:15:27;;;;;;;0.50;0.30;;;16.00;99.90;;;;;;5052795;28;20452;-82
2023/09/08 05:17:54;;;;;;;0.50;0.40;;;15.90;99.90;;;;;;5053469;28;20470;-82
2023/09/08 05:20:20;;;;;;;0.50;0.40;;;15.90;99.90;;;;;;5054320;28;20439;-84
2023/09/08 05:22:47;;;;;;;0.50;0.30;;;16.00;99.90;;;;;;5053336;28;20436;-83
2023/09/08 05:25:15;;;;;;;0.50;0.40;;;16.00;99.90;;;;;;5036718;28;20451;-83
2023/09/08 05:27:42;;;;;;;0.50;0.30;;;16.00;99.90;;;;;;5053772;28;20828;-83
2023/09/08 05:30:10;;;;;;;0.50;0.30;;;16.10;99.90;;;;;;5053567;28;20783;-83
2023/09/08 05:32:36;;;;;;;0.50;0.30;;;16.10;99.90;;;;;;5053214;28;20547;-83
2023/09/08 05:35:04;;;;;;;0.50;0.30;;;16.20;99.90;;;;;;5054086;28;20452;-83
2023/09/08 05:37:30;;;;;;;0.50;0.30;;;16.30;99.90;;;;;;5053224;28;21026;-83
2023/09/08 05:39:57;;;;;;;0.50;0.30;;;16.30;99.90;;;;;;5053862;28;20925;-82
2023/09/08 05:42:25;;;;;;;0.50;0.30;;;16.30;99.90;;;;;;5056822;28;20933;-83
2023/09/08 05:44:54;;;;;;;0.50;0.30;;;16.40;99.90;;;;;;5052899;28;20442;-82
2023/09/08 05:47:21;;;;;;;0.50;0.30;;;16.50;99.90;;;;;;5052509;28;20467;-83
2023/09/08 05:49:48;;;;;;;0.50;0.37;;;16.50;99.90;;;;;;5053815;28;20442;-83
2023/09/08 05:52:14;;;;;;;0.50;0.40;;;16.60;99.90;;;;;;5045251;28;20520;-82
2023/09/08 05:54:41;;;;;;;0.50;0.40;;;16.70;99.90;;;;;;5054125;28;20442;-82
2023/09/08 05:57:08;;;;;;;0.50;0.30;;;16.80;99.90;;;;;;5053042;28;20484;-83
2023/09/08 05:59:36;;;;;;;0.50;0.30;;;17.00;99.90;;;;;;5053805;28;20440;-80
2023/09/08 06:02:03;;;;;;;0.50;0.30;;;17.30;99.90;;;;;;5053021;28;20444;-81
2023/09/08 06:04:32;;;;;;;0.50;0.40;;;17.60;99.90;;;;;;5054917;28;20443;-82
2023/09/08 06:06:58;;;;;;;0.50;0.30;;;17.90;99.90;;;;;;5053073;28;20474;-82
2023/09/08 06:09:25;;;;;;;0.50;0.30;;;18.20;99.90;;;;;;5052392;28;21022;-82
2023/09/08 06:11:52;;;;;;;0.50;0.30;;;18.50;99.90;;;;;;5052165;28;20443;-81
2023/09/08 06:14:19;;;;;;;0.50;0.30;;;18.70;99.90;;;;;;5053972;28;20453;-81
2023/09/08 06:16:47;;;;;;;0.50;0.30;;;18.90;99.90;;;;;;5052055;28;20479;-81
2023/09/08 06:19:13;;;;;;;0.50;0.40;;;19.20;99.90;;;;;;5056049;28;20441;-82
2023/09/08 06:21:40;;;;;;;0.50;0.30;;;19.60;99.90;;;;;;5056437;28;20501;-81
2023/09/08 06:24:08;;;;;;;0.50;0.30;;;20.10;99.90;;;;;;5055286;28;20439;-81
2023/09/08 06:26:34;;;;;;;6.13;2.33;;;20.50;99.90;;;;;;5057227;28;20470;-82
2023/09/08 06:29:01;;;;;;;0.50;0.40;;;20.90;99.90;;;;;;5056135;28;20454;-83
2023/09/08 06:31:28;;;;;;;0.50;0.30;;;21.40;99.90;;;;;;5057288;28;20474;-81
2023/09/08 06:33:56;;;;;;;0.50;0.30;;;21.90;99.90;;;;;;5056667;28;20436;-81
2023/09/08 06:36:23;;;;;;;0.50;0.30;;;22.40;99.90;;;;;;5056323;28;20479;-82
2023/09/08 06:38:50;;;;;;;0.50;0.40;;;22.70;99.90;;;;;;5056089;28;20807;-82
2023/09/08 06:41:17;;;;;;;0.50;0.40;;;23.30;99.90;;;;;;5055233;28;20922;-82
2023/09/08 06:43:45;;;;;;;0.50;0.40;;;23.80;99.90;;;;;;5055416;28;20828;-82
2023/09/08 06:46:11;;;;;;;0.90;0.63;;;24.20;99.90;;;;;;5055584;28;20549;-81
2023/09/08 06:48:38;;;;;;;0.50;0.40;;;24.40;99.90;;;;;;5055767;28;20469;-82
2023/09/08 06:51:06;;;;;;;1.87;1.77;;;24.80;99.90;;;;;;5056011;28;20550;-82
2023/09/08 06:53:33;;;;;;;0.50;0.30;;;25.40;99.90;;;;;;5056011;28;20439;-82
2023/09/08 06:56:00;;;;;;;0.70;0.60;;;25.90;99.90;;;;;;5055790;28;20461;-81
2023/09/08 06:58:26;;;;;;;0.53;0.47;;;26.50;99.90;;;;;;5055700;28;20438;-82
2023/09/08 07:00:55;;;;;;;1.77;1.70;;;27.00;99.90;;;;;;5056741;28;20446;-81
2023/09/08 07:03:22;;;;;;;0.60;0.50;;;27.40;99.90;;;;;;5038536;28;20445;-81
2023/09/08 07:05:50;;;;;;;0.50;0.30;;;27.50;99.90;;;;;;5055280;28;20953;-82
2023/09/08 07:08:18;;;;;;;0.50;0.30;;;27.50;99.90;;;;;;5055558;28;20558;-81
2023/09/08 07:10:45;;;;;;;0.50;0.30;;;27.60;99.90;;;;;;5048244;28;20489;-80
2023/09/08 07:13:12;;;;;;;0.70;0.70;;;28.10;99.90;;;;;;5053488;28;20454;-82
2023/09/08 07:15:39;;;;;;;0.50;0.30;;;28.40;99.90;;;;;;5048178;28;20452;-82
2023/09/08 07:18:06;;;;;;;0.50;0.30;;;28.90;99.90;;;;;;5055134;28;20494;-82
2023/09/08 07:20:33;;;;;;;0.60;0.50;;;28.90;99.90;;;;;;5057413;28;20445;-83
2023/09/08 07:22:59;;;;;;;0.50;0.40;;;29.30;99.90;;;;;;5056947;28;20439;-82
2023/09/08 07:25:28;;;;;;;0.50;0.50;;;29.60;99.90;;;;;;5056605;28;20451;-81
2023/09/08 07:27:54;;;;;;;0.50;0.30;;;30.00;99.90;;;;;;5056254;28;20462;-82
2023/09/08 07:30:21;;;;;;;0.50;0.30;;;30.20;99.90;;;;;;5054698;28;20435;-82
2023/09/08 07:32:48;;;;;;;0.50;0.30;;;30.50;99.00;;;;;;5056409;28;20449;-80
2023/09/08 07:35:16;;;;;;;0.50;0.30;;;30.70;97.20;;;;;;5055985;28;20463;-82
2023/09/08 07:37:43;;;;;;;1.43;1.33;;;30.80;97.90;;;;;;5061671;28;20503;-80
2023/09/08 07:40:11;;;;;;;0.50;0.30;;;31.00;96.40;;;;;;5059613;28;20441;-80
2023/09/08 07:42:39;;;;;;;0.50;0.30;;;31.30;98.30;;;;;;5057333;28;20452;-82
2023/09/08 07:45:09;;;;;;;0.50;0.40;;;31.90;95.90;;;;;;5063617;28;20860;-82
2023/09/08 07:47:38;;;;;;;0.50;0.40;;;31.90;93.40;;;;;;5060086;28;20465;-82
2023/09/08 07:50:19;;;;;;;0.50;0.30;;;32.10;93.00;;;;;;5054621;28;20798;-82
2023/09/08 07:52:46;;;;;;;0.50;0.30;;;32.40;92.70;;;;;;5055179;28;20445;-81
2023/09/08 07:55:12;;;;;;;0.50;0.50;;;32.50;91.20;;;;;;5054563;28;20800;-84
2023/09/08 07:57:42;;;;;;;0.50;0.40;;;32.90;91.10;;;;;;5054273;28;20485;-80
2023/09/08 08:00:11;;;;;;;0.50;0.30;;;33.00;90.30;;;;;;5053850;28;20456;-79
2023/09/08 08:02:38;;;;;;;0.60;0.60;;;34.10;85.90;;;;;;5054949;28;20464;-80
2023/09/08 08:05:05;;;;;;;0.67;0.60;;;34.40;84.00;;;;;;5053458;28;20933;-79
2023/09/08 08:07:32;;;;;;;2.10;2.00;;;34.60;81.90;;;;;;5054314;28;20453;-79
2023/09/08 08:09:59;;;;;;;0.67;0.67;;;34.80;81.50;;;;;;5054017;28;20446;-80
2023/09/08 08:12:26;;;;;;;0.40;0.30;;;34.50;82.20;;;;;;5054165;28;20448;-80
2023/09/08 08:14:54;;;;;;;8.70;1.80;;;35.20;78.60;;;;;;5054332;28;20474;-80
2023/09/08 08:17:21;;;;;;;0.40;0.30;;;35.40;73.80;;;;;;5054504;28;20487;-80
2023/09/08 08:19:48;;;;;;;0.40;0.40;;;35.50;75.90;;;;;;5054400;28;20438;-80
2023/09/08 08:22:15;;;;;;;0.40;0.30;;;35.60;72.90;;;;;;5053586;28;20530;-80
2023/09/08 08:24:42;;;;;;;0.40;0.30;;;36.00;72.20;;;;;;5054109;28;20452;-79
2023/09/08 08:27:08;;;;;;;0.47;0.40;;;35.20;69.70;;;;;;5054363;28;20453;-80
2023/09/08 08:29:35;;;;;;;0.53;0.50;;;35.10;70.30;;;;;;5054016;28;20437;-80
2023/09/08 08:32:04;;;;;;;0.40;0.30;;;35.10;69.00;;;;;;5053716;28;20529;-80
2023/09/08 08:34:31;;;;;;;0.40;0.30;;;35.40;68.30;;;;;;5037309;28;20942;-80
2023/09/08 08:36:58;;;;;;;0.40;0.30;;;35.20;66.90;;;;;;5053894;28;20481;-81
2023/09/08 08:39:24;;;;;;;0.60;0.60;;;35.70;70.70;;;;;;5052989;28;20528;-80
2023/09/08 08:41:51;;;;;;;0.40;0.30;;;35.90;66.70;;;;;;5053154;28;20443;-80
2023/09/08 08:44:19;;;;;;;0.40;0.30;;;35.60;65.00;;;;;;5053134;28;20532;-80
2023/09/08 08:46:47;;;;;;;0.40;0.30;;;36.20;68.50;;;;;;5053540;28;20557;-80
2023/09/08 08:49:17;;;;;;;1.53;0.50;;;35.90;62.90;;;;;;5052981;28;20454;-80
2023/09/08 08:51:46;;;;;;;0.40;0.30;;;35.40;63.00;;;;;;5053862;28;20437;-80
2023/09/08 08:54:14;;;;;;;0.73;0.73;;;36.00;67.00;;;;;;5053581;28;20453;-80
2023/09/08 08:56:42;;;;;;;0.40;0.30;;;36.70;63.50;;;;;;5053954;28;20836;-80
2023/09/08 08:59:10;;;;;;;0.40;0.30;;;37.00;60.50;;;;;;5053030;28;20438;-79
2023/09/08 09:01:37;;;;;;;0.40;0.30;;;37.30;65.10;;;;;;5052931;28;20499;-81
2023/09/08 09:04:06;;;;;;;1.17;0.87;;;38.00;65.90;;;;;;5052794;28;20816;-80
2023/09/08 09:06:35;;;;;;;0.40;0.30;;;37.90;58.00;;;;;;5053395;28;20810;-80
2023/09/08 09:09:03;;;;;;;0.40;0.30;;;36.80;59.40;;;;;;5053303;28;20442;-79
2023/09/08 09:11:31;;;;;;;0.40;0.30;;;37.10;59.70;;;;;;5053035;28;20437;-80
2023/09/08 09:13:58;;;;;;;1.33;1.23;;;37.50;58.30;;;;;;5052508;28;20453;-80
2023/09/08 09:16:25;;;;;;;0.40;0.30;;;37.30;57.30;;;;;;5052441;28;20457;-80
2023/09/08 09:18:56;;;;;;;0.40;0.30;;;37.00;57.20;;;;;;5052691;28;20556;-80
2023/09/08 09:21:23;;;;;;;0.40;0.30;;;36.70;58.50;;;;;;5052831;28;20806;-80
2023/09/08 09:23:51;;;;;;;0.40;0.30;;;36.90;59.20;;;;;;5052860;28;20437;-80
2023/09/08 09:26:25;;;;;;;0.70;0.53;;;37.20;59.50;;;;;;5052077;28;20465;-80
2023/09/08 09:28:53;;;;;;;0.50;0.47;;;37.80;57.30;;;;;;5052935;28;20444;-80
2023/09/08 09:31:24;;;;;;;0.40;0.40;;;38.20;57.50;;;;;;5053120;28;20881;-80
2023/09/08 09:34:04;;;;;;;0.40;0.30;;;38.20;55.70;;;;;;5052322;28;20437;-80
2023/09/08 09:36:31;;;;;;;0.40;0.40;;;38.30;56.80;;;;;;5045723;28;20503;-80
2023/09/08 09:39:01;;;;;;;1.10;0.60;;;38.80;56.20;;;;;;5052299;28;21019;-78
2023/09/08 09:41:30;;;;;;;0.40;0.40;;;38.30;55.30;;;;;;5052310;28;20449;-80
2023/09/08 09:43:57;;;;;;;0.70;0.70;;;37.90;55.40;;;;;;5052144;28;20848;-81
2023/09/08 09:46:24;;;;;;;0.40;0.30;;;36.10;56.40;;;;;;5051669;28;21032;-80
2023/09/08 09:48:53;;;;;;;0.40;0.30;;;36.40;60.20;;;;;;5052535;28;20436;-79
2023/09/08 09:51:20;;;;;;;0.40;0.30;;;37.20;58.80;;;;;;5051912;28;20446;-81
2023/09/08 09:53:47;;;;;;;0.40;0.30;;;37.60;56.60;;;;;;5051420;28;20484;-81
2023/09/08 09:56:17;;;;;;;0.40;0.30;;;37.70;55.50;;;;;;5052258;28;20480;-81
2023/09/08 09:58:45;;;;;;;0.40;0.30;;;37.90;55.90;;;;;;5052234;28;20478;-80
2023/09/08 10:01:12;;;;;;;0.40;0.30;;;38.50;57.00;;;;;;5052464;28;20442;-81
2023/09/08 10:03:40;;;;;;;0.80;0.80;;;38.90;55.70;;;;;;5052814;28;20511;-81
2023/09/08 10:06:07;;;;;;;0.40;0.30;;;38.50;54.40;;;;;;5052919;28;20458;-81
2023/09/08 10:08:36;;;;;;;0.40;0.30;;;38.50;57.80;;;;;;5052815;28;20436;-81
2023/09/08 10:11:07;;;;;;;0.40;0.30;;;38.70;56.80;;;;;;5053183;28;20533;-82
2023/09/08 10:13:41;;;;;;;0.40;0.30;;;38.90;54.60;;;;;;5051279;28;20445;-80
2023/09/08 10:16:09;;;;;;;0.40;0.30;;;39.60;56.40;;;;;;5052186;28;20971;-79
2023/09/08 10:18:38;;;;;;;0.40;0.30;;;39.70;54.20;;;;;;5051467;28;20497;-80
2023/09/08 10:21:06;;;;;;;0.40;0.30;;;39.10;53.70;;;;;;5051464;28;20445;-80
2023/09/08 10:23:38;;;;;;;0.40;0.30;;;39.20;56.30;;;;;;5051030;28;20445;-81
2023/09/08 10:26:08;;;;;;;0.40;0.30;;;39.40;54.90;;;;;;5051503;28;20493;-80
2023/09/08 10:28:37;;;;;;;0.40;0.30;;;38.80;54.40;;;;;;5049520;28;20434;-80
2023/09/08 10:31:05;;;;;;;0.40;0.30;;;38.90;57.00;;;;;;5035584;28;20562;-80
2023/09/08 10:33:33;;;;;;;0.40;0.30;;;39.60;55.40;;;;;;5049313;28;20446;-80
2023/09/08 10:36:02;;;;;;;0.40;0.30;;;39.80;55.30;;;;;;5052252;28;20465;-80
2023/09/08 10:38:32;;;;;;;0.97;0.97;;;40.50;55.40;;;;;;5051955;28;20582;-82
2023/09/08 10:41:32;;;;;;;0.40;0.30;;;40.90;53.30;;;;;;5051919;28;20516;-81
2023/09/08 10:44:04;;;;;;;0.40;0.30;;;40.90;53.10;;;;;;5040551;28;20520;-80
2023/09/08 10:46:32;;;;;;;0.50;0.30;;;40.30;52.50;;;;;;5051946;28;20469;-81
2023/09/08 10:49:04;;;;;;;0.40;0.30;;;40.00;52.40;;;;;;5051869;28;20442;-80
2023/09/08 10:51:31;;;;;;;0.40;0.30;;;39.00;53.60;;;;;;5051644;28;20445;-81
2023/09/08 10:53:57;;;;;;;0.40;0.30;;;39.50;55.00;;;;;;5051438;28;20446;-81
2023/09/08 10:56:29;;;;;;;0.80;0.80;;;39.80;54.90;;;;;;5051307;28;20461;-80
2023/09/08 10:58:56;;;;;;;0.40;0.30;;;39.70;52.60;;;;;;5051593;28;20473;-80
2023/09/08 11:01:27;;;;;;;0.40;0.30;;;39.80;55.10;;;;;;5051657;28;20465;-81
2023/09/08 11:03:54;;;;;;;0.83;0.50;;;39.80;56.20;;;;;;5053025;28;20929;-80
2023/09/08 11:06:23;;;;;;;2.70;1.37;;;40.20;53.30;;;;;;5055169;28;20457;-82
2023/09/08 11:08:53;;;;;;;0.40;0.30;;;40.50;53.50;;;;;;5054767;28;20904;-80
2023/09/08 11:11:20;;;;;;;0.40;0.30;;;41.00;53.50;;;;;;5055022;28;20445;-79
2023/09/08 11:13:47;;;;;;;0.40;0.40;;;40.80;52.20;;;;;;5054563;28;20528;-81
2023/09/08 11:16:14;;;;;;;0.40;0.30;;;40.80;53.40;;;;;;5054063;28;20493;-81
2023/09/08 11:18:43;;;;;;;0.40;0.30;;;40.60;52.90;;;;;;5067755;22;21029;-79
2023/09/08 11:21:11;;;;;;;0.40;0.40;;;40.80;55.40;;;;;;5069591;28;20921;-78
2023/09/08 11:23:38;;;;;;;0.70;0.40;;;41.20;52.80;;;;;;5066219;28;20445;-79
2023/09/08 11:26:06;;;;;;;0.40;0.30;;;41.00;51.60;;;;;;5068356;28;20533;-80
2023/09/08 11:28:33;;;;;;;0.40;0.30;;;40.80;54.40;;;;;;5057441;28;20454;-79
2023/09/08 11:31:00;;;;;;;0.40;0.30;;;40.80;52.50;;;;;;5056867;28;20465;-81
2023/09/08 11:33:26;;;;;;;0.40;0.30;;;41.30;51.70;;;;;;5056532;28;20444;-80
2023/09/08 11:35:55;;;;;;;0.50;0.50;;;41.40;53.10;;;;;;5056822;28;20433;-80
2023/09/08 11:38:26;;;;;;;0.40;0.30;;;41.60;51.90;;;;;;5049262;28;20873;-80
2023/09/08 11:40:57;;;;;;;0.40;0.30;;;41.60;52.80;;;;;;5057226;28;20434;-80
2023/09/08 11:43:24;;;;;;;0.40;0.30;;;41.60;50.50;;;;;;5056703;28;21011;-80
2023/09/08 11:45:51;;;;;;;0.40;0.30;;;41.90;52.10;;;;;;5056497;28;20800;-80
2023/09/08 11:48:17;;;;;;;0.40;0.30;;;41.70;50.70;;;;;;5056275;28;20449;-80
2023/09/08 11:50:44;;;;;;;0.40;0.30;;;41.90;51.70;;;;;;5056491;28;20433;-80
2023/09/08 11:53:12;;;;;;;0.50;0.43;;;41.50;50.00;;;;;;5056668;28;20430;-80
2023/09/08 11:55:40;;;;;;;0.40;0.30;;;41.60;52.20;;;;;;5055991;28;20811;-81
2023/09/08 11:58:07;;;;;;;0.40;0.30;;;41.50;53.40;;;;;;5056831;28;20492;-81
2023/09/08 12:00:34;;;;;;;0.40;0.30;;;40.90;51.20;;;;;;5057295;28;20441;-81
2023/09/08 12:03:11;;;;;;;0.40;0.30;;;40.80;52.30;;;;;;5057273;28;20932;-81
2023/09/08 12:05:39;;;;;;;0.40;0.40;;;41.00;50.90;;;;;;5042061;28;20583;-81
2023/09/08 12:08:06;;;;;;;0.40;0.30;;;40.70;50.30;;;;;;5044548;28;20457;-81
2023/09/08 12:10:41;;;;;;;0.40;0.30;;;40.60;51.50;;;;;;5056078;28;20536;-81
2023/09/08 12:13:08;;;;;;;0.40;0.30;;;40.70;50.70;;;;;;5056671;28;20433;-80
2023/09/08 12:15:36;;;;;;;0.40;0.30;;;40.80;51.70;;;;;;5055280;28;20503;-80
2023/09/08 12:18:04;;;;;;;0.40;0.30;;;41.30;50.60;;;;;;5051811;28;21002;-81
2023/09/08 12:20:32;;;;;;;0.90;0.60;;;41.40;52.30;;;;;;5056412;28;20438;-82
2023/09/08 12:23:01;;;;;;;0.40;0.30;;;40.30;50.90;;;;;;5056281;28;20438;-82
2023/09/08 12:25:31;;;;;;;1.43;0.53;;;39.30;52.10;;;;;;5055916;28;20453;-80
2023/09/08 12:27:59;;;;;;;0.40;0.30;;;39.50;52.60;;;;;;5056592;28;20461;-81
2023/09/08 12:30:29;;;;;;;0.40;0.30;;;39.50;54.20;;;;;;5056489;28;21048;-79
2023/09/08 12:32:58;;;;;;;0.40;0.30;;;39.60;52.30;;;;;;5056520;28;20438;-79
2023/09/08 12:35:25;;;;;;;0.40;0.30;;;39.70;51.60;;;;;;5055623;28;20500;-81
2023/09/08 12:37:59;;;;;;;0.40;0.30;;;39.90;52.40;;;;;;5039899;28;20487;-82
2023/09/08 12:40:26;;;;;;;0.40;0.30;;;40.10;52.70;;;;;;5053255;28;20440;-80
2023/09/08 12:42:53;;;;;;;0.50;0.50;;;40.20;51.90;;;;;;5036654;28;20491;-80
2023/09/08 12:45:22;;;;;;;0.40;0.30;;;40.50;52.00;;;;;;5055849;28;20450;-82
2023/09/08 12:47:49;;;;;;;0.50;0.50;;;40.70;53.00;;;;;;5055085;28;20515;-80
2023/09/08 12:50:16;;;;;;;0.40;0.30;;;40.20;51.60;;;;;;5055805;28;20444;-81